Time;durP1;ratioP1;P1;durP2;ratioP2;P2;SDS_P1;SDS_P2;PMS_P1;PMS_P2;Temp;Humidity;BMP_temperature;BMP_pressure;BME280_temperature;BME280_humidity;BME280_pressure;Samples;Min_cycle;Max_cycle;Signal;HPM_P1;HPM_P2
2023/09/07 00:00:30;;;;;;;3.73;3.43;;;24.60;62.30;;;;;;5083076;28;20485;-68
2023/09/07 00:03:17;;;;;;;4.00;3.70;;;24.70;62.30;;;;;;5087347;28;20468;-67
2023/09/07 00:06:04;;;;;;;4.00;3.70;;;24.60;62.10;;;;;;5086923;28;20451;-65
2023/09/07 00:08:51;;;;;;;3.67;3.37;;;24.60;62.20;;;;;;5099394;28;20483;-66
2023/09/07 00:11:39;;;;;;;4.33;3.70;;;24.70;62.30;;;;;;5113034;27;20822;-65
2023/09/07 00:14:26;;;;;;;4.50;4.10;;;24.60;62.20;;;;;;5092750;28;20986;-66
2023/09/07 00:17:14;;;;;;;3.90;3.53;;;24.70;62.30;;;;;;5090124;28;21137;-66
2023/09/07 00:20:04;;;;;;;3.93;3.53;;;24.60;62.30;;;;;;5086496;28;20817;-66
2023/09/07 00:22:51;;;;;;;4.30;3.90;;;24.60;62.20;;;;;;5095825;28;20439;-66
2023/09/07 00:25:37;;;;;;;4.37;3.97;;;24.60;62.20;;;;;;5096891;28;20447;-67
2023/09/07 00:28:25;;;;;;;4.60;4.20;;;24.60;62.30;;;;;;5112273;27;20467;-66
2023/09/07 00:31:12;;;;;;;3.80;3.50;;;24.60;62.20;;;;;;5089469;28;20463;-66
2023/09/07 00:34:00;;;;;;;3.70;3.20;;;24.60;62.20;;;;;;5098799;28;20463;-66
2023/09/07 00:36:47;;;;;;;4.70;4.30;;;24.60;62.10;;;;;;5078919;28;20529;-65
2023/09/07 00:39:34;;;;;;;3.77;3.47;;;24.60;62.20;;;;;;5088068;28;20908;-66
2023/09/07 00:42:21;;;;;;;4.10;3.20;;;24.60;62.30;;;;;;5096785;28;20411;-66
2023/09/07 00:45:09;;;;;;;3.97;3.67;;;24.60;62.10;;;;;;5091578;28;20459;-66
2023/09/07 00:47:56;;;;;;;3.87;3.57;;;24.60;62.20;;;;;;5100915;28;20835;-66
2023/09/07 00:50:46;;;;;;;3.80;3.50;;;24.60;62.10;;;;;;5087852;28;20533;-66
2023/09/07 00:53:33;;;;;;;4.37;3.97;;;24.60;62.20;;;;;;5092796;28;20476;-66
2023/09/07 00:56:20;;;;;;;3.70;3.40;;;24.60;62.30;;;;;;5090104;28;20792;-66
2023/09/07 00:59:09;;;;;;;4.40;4.00;;;24.60;62.30;;;;;;5119701;27;20466;-66
2023/09/07 01:01:56;;;;;;;3.57;3.27;;;24.60;62.10;;;;;;5093520;28;20444;-66
2023/09/07 01:04:43;;;;;;;4.10;3.80;;;24.60;62.10;;;;;;5079122;28;20467;-66
2023/09/07 01:07:37;;;;;;;4.23;2.90;;;24.60;62.10;;;;;;5085199;28;20974;-66
2023/09/07 01:10:24;;;;;;;5.17;3.53;;;24.50;62.00;;;;;;5082189;28;20479;-66
2023/09/07 01:13:10;;;;;;;3.70;3.40;;;24.60;62.10;;;;;;5105760;28;20879;-65
2023/09/07 01:15:57;;;;;;;3.63;3.33;;;24.60;63.50;;;;;;5083829;28;20464;-66
2023/09/07 01:18:45;;;;;;;4.20;3.00;;;24.50;62.10;;;;;;5087563;28;20550;-66
2023/09/07 01:21:36;;;;;;;3.77;3.47;;;24.50;62.10;;;;;;5092227;28;20440;-66
2023/09/07 01:24:24;;;;;;;3.80;3.50;;;24.50;62.10;;;;;;5115581;27;20833;-66
2023/09/07 01:27:13;;;;;;;4.20;3.67;;;24.50;62.10;;;;;;5084023;28;20967;-66
2023/09/07 01:30:00;;;;;;;3.83;3.53;;;24.50;62.20;;;;;;5085141;28;20553;-66
2023/09/07 01:32:49;;;;;;;4.03;3.73;;;24.50;62.20;;;;;;5092842;28;20762;-66
2023/09/07 01:35:37;;;;;;;4.17;3.87;;;24.50;62.10;;;;;;5085393;28;20424;-66
2023/09/07 01:38:25;;;;;;;3.43;3.13;;;24.50;62.10;;;;;;5079688;28;20837;-66
2023/09/07 01:41:12;;;;;;;4.03;3.60;;;24.50;62.10;;;;;;5092069;28;20797;-66
2023/09/07 01:43:59;;;;;;;3.43;3.13;;;24.50;62.20;;;;;;5088502;28;20483;-66
2023/09/07 01:46:46;;;;;;;3.80;3.50;;;24.50;62.10;;;;;;5086698;28;20448;-66
2023/09/07 01:49:34;;;;;;;3.90;3.60;;;24.50;62.10;;;;;;5081397;28;20467;-66
2023/09/07 01:52:21;;;;;;;3.40;3.10;;;24.50;62.10;;;;;;5091359;28;20530;-65
2023/09/07 01:55:10;;;;;;;3.50;3.20;;;24.50;62.30;;;;;;5090821;28;20541;-66
2023/09/07 01:57:57;;;;;;;3.33;3.13;;;24.50;62.20;;;;;;5087116;28;21480;-66
2023/09/07 02:00:44;;;;;;;3.60;3.30;;;24.40;62.10;;;;;;5092518;28;20456;-66
2023/09/07 02:03:31;;;;;;;3.90;3.60;;;24.50;62.20;;;;;;5091558;28;20938;-66
2023/09/07 02:06:18;;;;;;;3.90;3.60;;;24.40;62.10;;;;;;5094534;28;20444;-65
2023/09/07 02:09:05;;;;;;;3.97;3.33;;;24.40;62.10;;;;;;5095229;28;20487;-66
2023/09/07 02:11:53;;;;;;;3.70;3.40;;;24.40;62.20;;;;;;5086126;28;20503;-66
2023/09/07 02:14:40;;;;;;;3.70;3.40;;;24.40;62.20;;;;;;5090292;28;20558;-66
2023/09/07 02:17:27;;;;;;;3.77;3.43;;;24.40;62.20;;;;;;5087774;28;21143;-66
2023/09/07 02:20:14;;;;;;;3.10;2.83;;;24.40;62.10;;;;;;5089209;28;20545;-66
2023/09/07 02:23:02;;;;;;;3.90;3.43;;;24.40;62.20;;;;;;5094772;28;20467;-66
2023/09/07 02:25:49;;;;;;;4.20;3.80;;;24.40;62.10;;;;;;5094776;28;20444;-66
2023/09/07 02:28:37;;;;;;;3.63;3.33;;;24.40;62.10;;;;;;5090653;28;20464;-66
2023/09/07 02:31:25;;;;;;;5.03;3.43;;;24.40;62.20;;;;;;5095652;28;21020;-66
2023/09/07 02:34:12;;;;;;;3.00;2.80;;;24.40;62.10;;;;;;5086736;28;20857;-66
2023/09/07 02:36:59;;;;;;;4.30;3.83;;;24.40;62.20;;;;;;5094300;28;20440;-66
2023/09/07 02:39:46;;;;;;;3.83;3.53;;;24.40;62.20;;;;;;5095170;28;20455;-65
2023/09/07 02:42:33;;;;;;;3.00;2.80;;;24.40;62.20;;;;;;5101585;28;20461;-67
2023/09/07 02:45:22;;;;;;;3.60;3.30;;;24.40;62.30;;;;;;5085647;28;20545;-68
2023/09/07 02:48:09;;;;;;;3.73;3.43;;;24.40;62.20;;;;;;5094066;28;20513;-67
2023/09/07 02:51:00;;;;;;;3.50;3.20;;;24.30;63.50;;;;;;5092170;28;20941;-67
2023/09/07 02:53:47;;;;;;;3.63;3.33;;;24.40;62.20;;;;;;5094874;28;20823;-67
2023/09/07 02:56:35;;;;;;;3.00;2.80;;;24.30;62.10;;;;;;5078202;28;20453;-68
2023/09/07 02:59:22;;;;;;;4.00;3.37;;;24.30;62.20;;;;;;5085805;28;20470;-68
2023/09/07 03:02:10;;;;;;;3.43;3.13;;;24.30;62.10;;;;;;5093387;28;20466;-68
2023/09/07 03:04:58;;;;;;;4.10;3.80;;;24.30;62.10;;;;;;5083082;28;20735;-67
2023/09/07 03:07:47;;;;;;;3.67;3.37;;;24.30;62.10;;;;;;5087808;28;20459;-68
2023/09/07 03:10:37;;;;;;;3.67;3.33;;;24.30;62.30;;;;;;5088176;28;20444;-67
2023/09/07 03:13:24;;;;;;;4.10;3.80;;;24.30;62.20;;;;;;5077817;28;20483;-67
2023/09/07 03:16:11;;;;;;;4.07;3.77;;;24.30;62.10;;;;;;5081653;28;20465;-67
2023/09/07 03:19:00;;;;;;;3.50;3.20;;;24.30;62.20;;;;;;5084071;28;20554;-68
2023/09/07 03:21:47;;;;;;;3.50;3.20;;;24.30;62.20;;;;;;5082733;28;20533;-68
2023/09/07 03:24:35;;;;;;;5.60;3.00;;;24.30;62.10;;;;;;5091352;28;20451;-68
2023/09/07 03:27:22;;;;;;;3.63;3.33;;;24.30;62.10;;;;;;5091228;28;20734;-68
2023/09/07 03:30:10;;;;;;;3.87;3.57;;;24.30;62.30;;;;;;5105251;28;20886;-67
2023/09/07 03:32:58;;;;;;;4.90;3.87;;;24.20;62.10;;;;;;5091056;28;20463;-68
2023/09/07 03:35:47;;;;;;;3.47;3.17;;;24.30;62.10;;;;;;5099092;28;20443;-68
2023/09/07 03:38:34;;;;;;;3.90;3.50;;;24.20;63.60;;;;;;5089824;28;20831;-68
2023/09/07 03:41:21;;;;;;;4.50;3.30;;;24.20;62.30;;;;;;5089954;28;20493;-67
2023/09/07 03:44:08;;;;;;;3.60;3.30;;;24.20;62.10;;;;;;5088830;28;20460;-67
2023/09/07 03:46:55;;;;;;;3.80;3.50;;;24.20;62.10;;;;;;5089269;28;20456;-68
2023/09/07 03:49:42;;;;;;;4.03;3.73;;;24.20;62.30;;;;;;5106358;27;20475;-67
2023/09/07 03:52:31;;;;;;;3.70;3.40;;;24.20;62.20;;;;;;5089023;28;20520;-67
2023/09/07 03:55:20;;;;;;;3.30;3.00;;;24.20;62.10;;;;;;5086603;28;20420;-68
2023/09/07 03:58:10;;;;;;;3.27;2.97;;;24.10;62.10;;;;;;5088919;28;20476;-67
2023/09/07 04:01:00;;;;;;;3.40;3.20;;;24.10;62.10;;;;;;5087578;28;20915;-67
2023/09/07 04:03:50;;;;;;;4.30;3.80;;;24.10;62.10;;;;;;5097790;28;20580;-67
2023/09/07 04:06:37;;;;;;;2.90;2.70;;;24.20;62.10;;;;;;5084325;28;21001;-68
2023/09/07 04:09:25;;;;;;;3.70;3.40;;;24.10;62.10;;;;;;5086561;28;20467;-68
2023/09/07 04:12:14;;;;;;;3.33;3.00;;;24.10;62.10;;;;;;5090120;28;20452;-68
2023/09/07 04:15:02;;;;;;;4.27;3.87;;;24.10;62.10;;;;;;5087663;28;20427;-67
2023/09/07 04:17:51;;;;;;;4.10;3.70;;;24.10;62.00;;;;;;5090848;28;20533;-67
2023/09/07 04:20:38;;;;;;;3.53;3.23;;;24.10;62.10;;;;;;5093048;28;20435;-67
2023/09/07 04:23:25;;;;;;;3.57;3.20;;;24.10;62.20;;;;;;5093843;28;20602;-68
2023/09/07 04:26:13;;;;;;;3.57;3.27;;;24.10;62.10;;;;;;5099699;28;20440;-68
2023/09/07 04:29:00;;;;;;;3.77;3.33;;;24.10;62.10;;;;;;5085836;28;20545;-67
2023/09/07 04:31:46;;;;;;;3.50;3.20;;;24.10;62.00;;;;;;5092234;28;20634;-68
2023/09/07 04:34:34;;;;;;;3.53;3.23;;;24.10;62.00;;;;;;5091440;28;20569;-67
2023/09/07 04:37:20;;;;;;;3.50;3.20;;;24.10;62.00;;;;;;5089705;28;20820;-67
2023/09/07 04:40:08;;;;;;;3.90;3.50;;;24.10;62.10;;;;;;5083760;28;20650;-67
2023/09/07 04:42:57;;;;;;;3.33;3.03;;;24.10;63.40;;;;;;5094641;28;20479;-67
2023/09/07 04:45:47;;;;;;;3.10;2.80;;;24.10;62.10;;;;;;5088518;28;20435;-67
2023/09/07 04:48:35;;;;;;;3.50;3.20;;;24.10;62.10;;;;;;5082683;28;20475;-68
2023/09/07 04:51:23;;;;;;;3.43;3.13;;;24.00;62.10;;;;;;5092847;28;20813;-68
2023/09/07 04:54:10;;;;;;;3.23;2.97;;;24.00;62.00;;;;;;5093177;28;20609;-68
2023/09/07 04:56:57;;;;;;;3.70;2.83;;;24.00;61.90;;;;;;5093917;28;20986;-68
2023/09/07 04:59:46;;;;;;;3.00;2.80;;;24.00;62.10;;;;;;5088727;28;20845;-67
2023/09/07 05:02:38;;;;;;;3.80;3.17;;;24.00;62.00;;;;;;5087845;28;20524;-68
2023/09/07 05:05:26;;;;;;;3.90;3.50;;;24.00;62.20;;;;;;5086227;28;20463;-67
2023/09/07 05:08:13;;;;;;;3.60;3.30;;;24.00;62.30;;;;;;5108225;28;20471;-67
2023/09/07 05:11:02;;;;;;;3.83;3.53;;;24.00;62.10;;;;;;5091607;28;20459;-67
2023/09/07 05:13:49;;;;;;;4.07;3.70;;;24.00;62.00;;;;;;5086004;28;20533;-67
2023/09/07 05:16:38;;;;;;;3.40;3.10;;;24.00;62.10;;;;;;5118857;27;20459;-68
2023/09/07 05:19:25;;;;;;;3.90;3.43;;;23.90;61.90;;;;;;5085116;28;20491;-67
2023/09/07 05:22:12;;;;;;;3.13;2.40;;;23.90;61.90;;;;;;5107689;28;20490;-67
2023/09/07 05:24:59;;;;;;;3.30;2.90;;;23.90;62.10;;;;;;5094153;28;20431;-67
2023/09/07 05:27:49;;;;;;;3.40;3.20;;;23.90;62.10;;;;;;5083889;28;20978;-67
2023/09/07 05:30:36;;;;;;;3.20;3.00;;;23.90;62.00;;;;;;5086024;28;20431;-67
2023/09/07 05:33:25;;;;;;;3.77;3.47;;;23.90;62.10;;;;;;5091056;27;20483;-67
2023/09/07 05:36:13;;;;;;;4.70;2.93;;;23.90;62.00;;;;;;5091214;28;20469;-68
2023/09/07 05:39:01;;;;;;;3.40;3.20;;;23.90;62.10;;;;;;5092757;28;20459;-68
2023/09/07 05:41:50;;;;;;;3.60;3.30;;;23.90;61.90;;;;;;5088170;28;20591;-67
2023/09/07 05:44:37;;;;;;;3.50;3.20;;;23.90;61.90;;;;;;5115165;27;20614;-66
2023/09/07 05:47:26;;;;;;;3.70;3.40;;;23.90;61.80;;;;;;5092922;28;20792;-67
2023/09/07 05:50:14;;;;;;;3.67;3.37;;;23.90;62.00;;;;;;5085495;28;20971;-67
2023/09/07 05:53:02;;;;;;;5.67;3.60;;;23.90;61.90;;;;;;5104369;28;21025;-67
2023/09/07 05:55:49;;;;;;;3.50;3.20;;;23.90;62.00;;;;;;5116436;27;20431;-66
2023/09/07 05:58:36;;;;;;;3.40;3.10;;;23.90;62.20;;;;;;5083628;28;20491;-67
2023/09/07 06:01:23;;;;;;;4.37;3.63;;;23.90;62.10;;;;;;5093659;28;20431;-67
2023/09/07 06:04:11;;;;;;;3.07;2.80;;;23.90;62.10;;;;;;5085265;28;21064;-68
2023/09/07 06:07:00;;;;;;;3.73;3.43;;;23.80;62.00;;;;;;5092738;28;20436;-66
2023/09/07 06:09:47;;;;;;;3.80;3.50;;;23.80;62.10;;;;;;5089099;28;20484;-66
2023/09/07 06:12:34;;;;;;;4.63;3.50;;;23.80;62.20;;;;;;5082454;28;20456;-66
2023/09/07 06:15:22;;;;;;;3.10;2.90;;;23.80;62.20;;;;;;5092199;28;20439;-66
2023/09/07 06:18:09;;;;;;;3.10;2.90;;;23.80;62.50;;;;;;5083421;28;20495;-66
2023/09/07 06:20:56;;;;;;;4.40;3.60;;;23.80;62.60;;;;;;5089087;28;20502;-67
2023/09/07 06:23:45;;;;;;;3.60;3.30;;;23.80;62.50;;;;;;5091818;28;20545;-67
2023/09/07 06:26:32;;;;;;;3.77;3.47;;;23.80;62.50;;;;;;5098979;28;20443;-69
2023/09/07 06:29:19;;;;;;;3.93;3.63;;;23.80;62.50;;;;;;5082313;28;20480;-68
2023/09/07 06:32:06;;;;;;;3.13;2.87;;;23.80;62.40;;;;;;5092752;28;20558;-67
2023/09/07 06:34:54;;;;;;;3.20;2.90;;;23.80;62.50;;;;;;5087945;28;20539;-67
2023/09/07 06:37:43;;;;;;;3.30;3.07;;;23.80;62.50;;;;;;5092545;28;20427;-69
2023/09/07 06:40:32;;;;;;;6.70;6.00;;;23.70;63.00;;;;;;5091478;28;20768;-67
2023/09/07 06:43:19;;;;;;;6.70;5.40;;;23.30;58.00;;;;;;5086169;28;20218;-68
2023/09/07 06:46:09;;;;;;;7.63;5.03;;;23.20;59.80;;;;;;5087245;28;20742;-68
2023/09/07 06:48:56;;;;;;;6.17;5.67;;;23.20;60.10;;;;;;5084952;28;20484;-72
2023/09/07 06:51:43;;;;;;;5.37;4.87;;;23.30;60.30;;;;;;5115128;27;20959;-73
2023/09/07 06:54:31;;;;;;;4.60;4.10;;;23.40;60.50;;;;;;5083906;28;20463;-67
2023/09/07 06:57:20;;;;;;;4.97;4.57;;;23.50;60.70;;;;;;5090787;27;20879;-68
2023/09/07 07:00:08;;;;;;;4.30;3.90;;;23.50;60.60;;;;;;5089044;28;20519;-67
2023/09/07 07:02:56;;;;;;;4.47;4.03;;;23.50;60.60;;;;;;5092519;28;20427;-68
2023/09/07 07:05:45;;;;;;;3.90;3.60;;;23.60;60.90;;;;;;5084682;28;20428;-68
2023/09/07 07:08:32;;;;;;;4.80;4.40;;;23.60;60.80;;;;;;5083900;28;20477;-68
2023/09/07 07:11:19;;;;;;;4.70;4.30;;;23.60;60.90;;;;;;5092107;28;20426;-68
2023/09/07 07:14:08;;;;;;;4.13;3.73;;;23.60;61.00;;;;;;5091043;28;20467;-68
2023/09/07 07:16:55;;;;;;;4.90;4.37;;;23.60;61.00;;;;;;5087861;28;20781;-68
2023/09/07 07:19:43;;;;;;;4.70;4.20;;;23.60;61.10;;;;;;5072921;28;20472;-67
2023/09/07 07:22:32;;;;;;;4.53;4.20;;;23.60;61.10;;;;;;5079654;28;20455;-68
2023/09/07 07:25:19;;;;;;;4.37;3.97;;;23.60;61.20;;;;;;5090803;28;21014;-68
2023/09/07 07:28:07;;;;;;;4.90;4.40;;;23.60;61.30;;;;;;5087714;28;20463;-69
2023/09/07 07:30:55;;;;;;;3.67;3.37;;;23.60;61.40;;;;;;5091949;28;20432;-68
2023/09/07 07:33:43;;;;;;;4.67;4.20;;;23.60;61.50;;;;;;5079710;28;20480;-68
2023/09/07 07:36:30;;;;;;;4.27;3.87;;;23.60;61.50;;;;;;5082626;28;20443;-68
2023/09/07 07:39:21;;;;;;;5.73;4.20;;;23.60;61.50;;;;;;5089202;28;20471;-68
2023/09/07 07:42:08;;;;;;;4.67;4.27;;;23.60;61.60;;;;;;5084662;28;20833;-68
2023/09/07 07:44:55;;;;;;;4.13;3.63;;;23.70;61.80;;;;;;5091294;28;20500;-68
2023/09/07 07:47:44;;;;;;;4.10;3.70;;;23.60;61.80;;;;;;5087685;28;20509;-67
2023/09/07 07:50:31;;;;;;;4.30;3.20;;;23.70;61.90;;;;;;5089552;28;20467;-68
2023/09/07 07:53:18;;;;;;;3.87;3.47;;;23.70;61.90;;;;;;5103658;28;20500;-68
2023/09/07 07:56:06;;;;;;;3.90;3.60;;;23.70;62.00;;;;;;5089925;28;20530;-68
2023/09/07 07:58:53;;;;;;;4.53;4.13;;;23.70;62.00;;;;;;5087362;28;20855;-68
2023/09/07 08:01:40;;;;;;;7.73;5.30;;;23.70;62.10;;;;;;5102272;27;20415;-66
2023/09/07 08:04:29;;;;;;;4.07;3.40;;;23.70;62.10;;;;;;5088145;28;21010;-67
2023/09/07 08:07:16;;;;;;;3.90;3.60;;;23.70;62.10;;;;;;5088781;28;20439;-68
2023/09/07 08:10:04;;;;;;;3.67;3.37;;;23.70;62.20;;;;;;5090520;28;20463;-68
2023/09/07 08:12:55;;;;;;;4.30;3.90;;;23.70;62.20;;;;;;5087098;28;20978;-68
2023/09/07 08:15:43;;;;;;;4.20;3.90;;;23.60;62.20;;;;;;5102908;28;20431;-68
2023/09/07 08:18:33;;;;;;;4.43;4.10;;;23.70;62.40;;;;;;5084947;28;20910;-68
2023/09/07 08:21:24;;;;;;;3.50;3.20;;;23.70;62.50;;;;;;5089163;28;20982;-68
2023/09/07 08:24:11;;;;;;;4.03;3.73;;;23.70;62.40;;;;;;5089207;28;20467;-68
2023/09/07 08:27:00;;;;;;;4.07;3.77;;;23.70;62.50;;;;;;5090491;28;20427;-69
2023/09/07 08:29:51;;;;;;;3.80;3.50;;;23.70;62.60;;;;;;5084671;28;20478;-68
2023/09/07 08:32:39;;;;;;;4.07;3.77;;;23.70;62.60;;;;;;5083422;28;20493;-68
2023/09/07 08:35:27;;;;;;;3.60;3.30;;;23.70;62.70;;;;;;5091807;28;20594;-68
2023/09/07 08:38:16;;;;;;;4.10;3.70;;;23.70;62.70;;;;;;5103715;28;20443;-68
2023/09/07 08:41:05;;;;;;;4.37;3.97;;;23.70;62.70;;;;;;5090923;28;20817;-68
2023/09/07 08:43:55;;;;;;;4.67;4.27;;;23.70;62.70;;;;;;5095343;27;20487;-68
2023/09/07 08:46:43;;;;;;;4.60;4.20;;;23.70;62.90;;;;;;5083483;28;20622;-68
2023/09/07 08:49:32;;;;;;;4.00;3.60;;;23.70;62.90;;;;;;5081736;28;20476;-68
2023/09/07 08:52:19;;;;;;;4.37;4.07;;;23.70;63.00;;;;;;5089713;28;20975;-67
2023/09/07 08:55:11;;;;;;;3.63;3.33;;;23.70;63.00;;;;;;5104283;28;20508;-66
2023/09/07 08:57:58;;;;;;;4.20;3.83;;;23.70;63.00;;;;;;5080946;28;20999;-68
2023/09/07 09:00:45;;;;;;;4.50;4.10;;;23.60;62.90;;;;;;5084568;28;20427;-68
2023/09/07 09:03:34;;;;;;;3.70;3.40;;;23.60;63.00;;;;;;5084489;28;20539;-68
2023/09/07 09:06:22;;;;;;;4.37;3.97;;;23.70;63.10;;;;;;5123840;27;20424;-68
2023/09/07 09:09:13;;;;;;;3.50;3.20;;;23.70;63.10;;;;;;5124443;27;20513;-68
2023/09/07 09:12:09;;;;;;;5.97;3.63;;;23.60;63.00;;;;;;5093436;28;20545;-67
2023/09/07 09:14:56;;;;;;;3.13;2.83;;;23.60;63.10;;;;;;5090780;28;20474;-68
2023/09/07 09:17:43;;;;;;;3.40;3.10;;;23.60;63.10;;;;;;5088892;28;20426;-67
2023/09/07 09:20:31;;;;;;;3.50;3.20;;;23.60;63.20;;;;;;5097346;28;20440;-67
2023/09/07 09:23:18;;;;;;;3.87;3.47;;;23.60;63.20;;;;;;5092865;28;20865;-67
2023/09/07 09:26:06;;;;;;;3.60;3.30;;;23.60;63.20;;;;;;5091177;28;20554;-67
2023/09/07 09:28:56;;;;;;;4.00;3.67;;;23.60;63.30;;;;;;5090868;28;20483;-68
2023/09/07 09:31:44;;;;;;;3.73;3.43;;;23.70;63.50;;;;;;5093162;28;20440;-67
2023/09/07 09:34:34;;;;;;;3.73;3.43;;;23.60;63.30;;;;;;5076217;28;20467;-68
2023/09/07 09:37:22;;;;;;;4.18;3.78;;;23.60;63.30;;;;;;5091519;28;20430;-67
2023/09/07 09:40:11;;;;;;;4.13;3.83;;;23.80;63.30;;;;;;5108110;28;20197;-67
2023/09/07 09:43:00;;;;;;;3.70;3.40;;;23.80;63.30;;;;;;5089086;28;20444;-72
2023/09/07 09:45:50;;;;;;;3.87;3.47;;;23.70;64.50;;;;;;5103016;28;20578;-74
2023/09/07 09:48:39;;;;;;;3.60;3.30;;;23.70;63.20;;;;;;5087299;28;20612;-73
2023/09/07 09:51:28;;;;;;;3.30;3.00;;;23.70;63.30;;;;;;5088707;28;20448;-72
2023/09/07 09:54:16;;;;;;;4.30;3.77;;;23.70;63.30;;;;;;5084770;28;20472;-73
2023/09/07 09:57:03;;;;;;;4.10;3.70;;;23.70;63.50;;;;;;5090164;28;21044;-73
2023/09/07 09:59:51;;;;;;;4.20;3.80;;;23.70;63.60;;;;;;5103431;28;20455;-73
2023/09/07 10:02:41;;;;;;;3.70;3.20;;;23.70;63.60;;;;;;5092521;28;20525;-73
2023/09/07 10:05:30;;;;;;;3.37;3.07;;;23.70;63.60;;;;;;5088902;28;20540;-73
2023/09/07 10:08:19;;;;;;;3.57;3.27;;;23.70;63.70;;;;;;5110123;27;20561;-73
2023/09/07 10:11:09;;;;;;;3.70;3.50;;;23.70;63.80;;;;;;5107058;28;20785;-73
2023/09/07 10:13:58;;;;;;;3.70;3.40;;;23.70;63.80;;;;;;5085125;28;20475;-72
2023/09/07 10:16:47;;;;;;;3.53;3.23;;;23.70;63.90;;;;;;5102062;28;20435;-72
2023/09/07 10:19:38;;;;;;;3.87;3.50;;;23.60;63.80;;;;;;5089504;28;20541;-72
2023/09/07 10:22:25;;;;;;;3.50;3.20;;;23.60;63.80;;;;;;5092597;28;20440;-72
2023/09/07 10:25:22;;;;;;;3.60;3.30;;;23.60;63.90;;;;;;5104152;28;20499;-73
2023/09/07 10:28:19;;;;;;;3.70;3.40;;;23.70;64.00;;;;;;5081143;28;20456;-73
2023/09/07 10:31:08;;;;;;;3.63;3.33;;;23.70;64.10;;;;;;5093061;28;20411;-73
2023/09/07 10:33:55;;;;;;;3.40;3.10;;;23.60;63.90;;;;;;5080688;28;20476;-73
2023/09/07 10:36:43;;;;;;;3.60;3.30;;;23.60;64.00;;;;;;5085262;28;20471;-73
2023/09/07 10:39:32;;;;;;;3.73;3.43;;;23.70;64.10;;;;;;5091409;28;20463;-73
2023/09/07 10:42:24;;;;;;;4.27;3.53;;;23.70;64.10;;;;;;5086847;28;20521;-73
2023/09/07 10:45:15;;;;;;;4.07;3.70;;;23.70;64.10;;;;;;5091083;28;20444;-73
2023/09/07 10:48:04;;;;;;;3.47;3.17;;;23.60;64.10;;;;;;5089197;28;20464;-72
2023/09/07 10:50:52;;;;;;;3.60;3.30;;;23.70;64.20;;;;;;5103862;28;20582;-66
2023/09/07 10:53:41;;;;;;;3.40;2.90;;;23.60;64.20;;;;;;5090728;28;20632;-68
2023/09/07 10:56:27;;;;;;;3.93;3.53;;;23.70;64.20;;;;;;5104302;28;20467;-68
2023/09/07 10:59:15;;;;;;;2.77;2.57;;;23.70;64.20;;;;;;5087201;28;20860;-67
2023/09/07 11:02:05;;;;;;;3.77;3.40;;;23.70;64.20;;;;;;5092823;28;20530;-67
2023/09/07 11:04:52;;;;;;;3.70;3.40;;;23.70;64.20;;;;;;5093619;28;20471;-67
2023/09/07 11:07:43;;;;;;;3.90;3.50;;;23.70;64.20;;;;;;5100524;28;20443;-67
2023/09/07 11:10:34;;;;;;;2.70;2.50;;;23.70;64.10;;;;;;5090170;28;20443;-68
2023/09/07 11:13:22;;;;;;;4.20;3.80;;;23.70;64.20;;;;;;5088462;28;20627;-67
2023/09/07 11:16:11;;;;;;;3.37;2.80;;;23.70;64.30;;;;;;5087092;28;20460;-67
2023/09/07 11:19:00;;;;;;;3.33;3.03;;;23.70;64.30;;;;;;5096970;28;20880;-67
2023/09/07 11:21:47;;;;;;;3.37;3.17;;;23.70;64.30;;;;;;5086830;28;20447;-67
2023/09/07 11:24:35;;;;;;;3.90;3.60;;;23.70;64.30;;;;;;5089423;28;20462;-68
2023/09/07 11:27:26;;;;;;;3.97;3.37;;;23.70;64.30;;;;;;5089334;28;20959;-68
2023/09/07 11:30:13;;;;;;;3.33;3.03;;;23.70;64.40;;;;;;5091944;28;20440;-68
2023/09/07 11:33:06;;;;;;;3.70;3.40;;;23.70;64.50;;;;;;5090460;28;20487;-68
2023/09/07 11:35:54;;;;;;;3.13;2.93;;;23.70;64.40;;;;;;5086053;28;20471;-67
2023/09/07 11:38:44;;;;;;;3.70;3.00;;;23.70;64.50;;;;;;5090409;28;20577;-67
2023/09/07 11:41:31;;;;;;;3.90;3.07;;;23.70;64.50;;;;;;5087429;28;20452;-67
2023/09/07 11:44:20;;;;;;;3.73;3.13;;;23.70;64.60;;;;;;5087775;28;20541;-68
2023/09/07 11:47:07;;;;;;;3.50;3.20;;;23.70;64.50;;;;;;5100749;28;20433;-67
2023/09/07 11:49:54;;;;;;;3.93;3.60;;;23.70;64.40;;;;;;5081228;28;20540;-68
2023/09/07 11:52:41;;;;;;;3.50;3.20;;;23.80;64.70;;;;;;5089543;28;20435;-68
2023/09/07 11:55:28;;;;;;;3.37;3.17;;;23.70;64.50;;;;;;5104946;28;20467;-68
2023/09/07 11:58:15;;;;;;;3.40;3.10;;;23.80;64.40;;;;;;5088017;28;20467;-68
2023/09/07 12:01:04;;;;;;;3.80;3.50;;;23.80;64.50;;;;;;5106089;27;20825;-67
2023/09/07 12:03:50;;;;;;;3.90;3.60;;;23.80;64.70;;;;;;5109965;27;20710;-68
2023/09/07 12:06:38;;;;;;;3.70;3.40;;;23.80;64.80;;;;;;5090297;28;20439;-69
2023/09/07 12:09:25;;;;;;;3.77;3.47;;;23.80;64.80;;;;;;5088867;28;20556;-69
2023/09/07 12:12:12;;;;;;;3.47;3.07;;;23.80;64.70;;;;;;5087756;28;20803;-68
2023/09/07 12:15:00;;;;;;;3.70;3.40;;;23.80;64.70;;;;;;5084985;28;20553;-68
2023/09/07 12:17:54;;;;;;;2.90;2.70;;;23.80;64.60;;;;;;5084295;28;20858;-68
2023/09/07 12:20:43;;;;;;;3.50;3.20;;;23.80;64.80;;;;;;5089230;28;20440;-68
2023/09/07 12:23:32;;;;;;;3.80;3.50;;;23.80;64.80;;;;;;5090133;28;20467;-68
2023/09/07 12:26:21;;;;;;;3.70;3.40;;;23.80;64.70;;;;;;5097342;28;20477;-66
2023/09/07 12:29:08;;;;;;;3.27;3.07;;;23.80;64.80;;;;;;5100833;28;20482;-66
2023/09/07 12:31:57;;;;;;;3.77;3.47;;;23.80;64.80;;;;;;5080071;28;20469;-66
2023/09/07 12:34:47;;;;;;;3.83;2.97;;;23.80;64.80;;;;;;5076530;28;20525;-69
2023/09/07 12:37:35;;;;;;;3.40;3.10;;;23.80;64.90;;;;;;5081778;28;20459;-68
2023/09/07 12:40:22;;;;;;;3.43;3.13;;;23.80;64.70;;;;;;5092553;28;20554;-68
2023/09/07 12:43:09;;;;;;;3.57;3.27;;;23.80;64.90;;;;;;5091298;28;20850;-67
2023/09/07 12:45:56;;;;;;;3.23;2.93;;;23.80;64.70;;;;;;5097060;28;20475;-68
2023/09/07 12:48:44;;;;;;;3.20;2.93;;;23.80;65.00;;;;;;5089179;28;20508;-68
2023/09/07 12:51:32;;;;;;;3.87;3.57;;;23.80;64.90;;;;;;5110355;28;20858;-68
2023/09/07 12:54:20;;;;;;;3.70;3.40;;;23.80;64.80;;;;;;5093579;28;20478;-68
2023/09/07 12:57:07;;;;;;;3.43;3.13;;;23.90;65.00;;;;;;5093937;28;20593;-67
2023/09/07 12:59:54;;;;;;;3.67;3.37;;;23.90;65.00;;;;;;5084438;28;20475;-68
2023/09/07 13:02:41;;;;;;;3.70;3.40;;;23.90;64.80;;;;;;5087426;28;20434;-68
2023/09/07 13:05:28;;;;;;;3.90;3.50;;;23.90;65.10;;;;;;5100096;28;21108;-68
2023/09/07 13:08:17;;;;;;;3.63;3.33;;;23.90;65.00;;;;;;5090628;28;20491;-68
2023/09/07 13:11:04;;;;;;;3.20;2.90;;;23.90;65.10;;;;;;5094499;28;20443;-68
2023/09/07 13:13:52;;;;;;;3.33;3.10;;;23.90;64.90;;;;;;5086959;28;20467;-68
2023/09/07 13:16:38;;;;;;;3.73;3.43;;;23.90;65.00;;;;;;5093506;28;21018;-68
2023/09/07 13:19:26;;;;;;;4.40;4.03;;;23.90;64.70;;;;;;5085669;28;20490;-68
2023/09/07 13:22:12;;;;;;;3.57;3.27;;;23.90;64.90;;;;;;5108112;28;20955;-68
2023/09/07 13:25:01;;;;;;;3.37;3.10;;;23.90;65.00;;;;;;5093128;28;20467;-67
2023/09/07 13:27:49;;;;;;;3.17;2.97;;;23.90;64.90;;;;;;5087973;28;20525;-68
2023/09/07 13:30:37;;;;;;;4.10;3.80;;;23.90;65.00;;;;;;5093525;28;20428;-67
2023/09/07 13:33:25;;;;;;;3.63;3.30;;;23.90;64.80;;;;;;5091431;28;20522;-68
2023/09/07 13:36:13;;;;;;;3.53;3.23;;;23.90;64.70;;;;;;5090606;28;20467;-68
2023/09/07 13:39:01;;;;;;;3.10;2.80;;;23.90;64.90;;;;;;5103666;28;20455;-68
2023/09/07 13:41:49;;;;;;;3.70;3.40;;;23.90;64.60;;;;;;5101252;28;20433;-68
2023/09/07 13:44:38;;;;;;;3.57;3.27;;;24.00;64.80;;;;;;5085566;28;20475;-68
2023/09/07 13:47:25;;;;;;;3.50;3.20;;;24.00;64.70;;;;;;5087487;28;20521;-73
2023/09/07 13:50:14;;;;;;;3.50;3.20;;;24.00;64.90;;;;;;5092525;28;20494;-73
2023/09/07 13:53:01;;;;;;;3.30;3.00;;;24.00;64.70;;;;;;5096314;28;20480;-73
2023/09/07 13:55:49;;;;;;;3.77;3.47;;;24.00;64.90;;;;;;5087115;28;20427;-73
2023/09/07 13:58:38;;;;;;;4.53;3.17;;;24.00;64.80;;;;;;5080307;28;20594;-73
2023/09/07 14:01:27;;;;;;;3.20;3.00;;;24.00;64.50;;;;;;5108872;27;20448;-73
2023/09/07 14:04:15;;;;;;;5.57;3.60;;;24.00;64.60;;;;;;5086257;28;21139;-73
2023/09/07 14:07:02;;;;;;;3.37;3.07;;;24.00;64.70;;;;;;5104860;27;20722;-73
2023/09/07 14:09:49;;;;;;;3.50;3.20;;;24.00;64.70;;;;;;5102628;28;21092;-73
2023/09/07 14:12:37;;;;;;;3.00;2.70;;;24.00;64.80;;;;;;5084297;28;20636;-73
2023/09/07 14:15:26;;;;;;;4.10;3.70;;;24.10;64.80;;;;;;5090995;28;20439;-73
2023/09/07 14:18:14;;;;;;;5.10;4.60;;;24.10;64.60;;;;;;5090379;28;20467;-73
2023/09/07 14:21:01;;;;;;;5.97;4.10;;;24.20;62.50;;;;;;5104086;28;20422;-73
2023/09/07 14:23:49;;;;;;;7.60;4.10;;;24.30;62.90;;;;;;5092821;27;20476;-73
2023/09/07 14:26:35;;;;;;;4.60;4.20;;;24.40;62.40;;;;;;5091580;28;20481;-73
2023/09/07 14:29:23;;;;;;;5.67;3.90;;;24.30;62.50;;;;;;5086895;28;20487;-73
2023/09/07 14:32:12;;;;;;;4.80;4.30;;;24.30;62.60;;;;;;5121994;27;20431;-73
2023/09/07 14:35:00;;;;;;;4.33;3.90;;;24.30;62.60;;;;;;5096837;28;20479;-73